Ana Sayfa
METAR-TAF:

METAR-TAF

Havaalanları :

Sisam, Yunanistan

Enlem: 37-42N, Boylam: 026-55E, yükseklik: 2 m

Güncel hava durumu gözlemi

Rapor saat 17:50 UTC de 4 saat ve 39 dakika önce yapıldı.
Rüzgar değişken yönden 3 kt
Sıcaklık 13°C
Nem 82%
Basınç 1009 hPa
Görüş mesafesi 10 km veya daha fazla
2000 ft yükseklikte az bulutlu

METAR: LGSM 231750Z VRB03KT 9999 FEW020 13/10 Q1009

Saat: 00:29 (22:29 UTC)

Tahmin

Rapor saat 20:00 UTC de 2 saat ve 29 dakika önce yapıldı.
Ayın 23'si saat 21 UTC'den ayın 24'si saat 06 UTC'ye kadar geçerli Tahmin
Rüzgar değişken yönden 3 kt
Görüş mesafesi 10 km veya daha fazla
2000 ft yükseklikte az bulutlu
3000 ft yükseklikte parçalı bulutlu
Dönüşüyor
ayın 24'si saat 01 UTC'den ayın 24'si saat 03 UTC'ye kadar
Rüzgar doğu/güneydoğudan 12 kt

TAF: LGSM 232000Z 2321/2406 VRB03KT 9999 FEW020 SCT030 BECMG 2401/2403 11012KT

4.000'den fazla havaalanı için hava durumu gözlemleri ve tahminleri (METAR ve TAF raporları).

Kullanılabilir istasyonlar harita üzerinde sarı ve kırmızı noktalarla gösterilir.

İstasyonun adını görmek için fareyi noktanın üzerinde gezdirin.

Sonrasında hava gözlem ve tahminlerini görmek için tıklayın.

Haritayı değiştirmek için: yaklaştırmak için siyah artı işaretli yeşil düğmeye ve uzaklaştırmak için de eksi işaretli düğmeye hızla tıklayın; bitişik haritalar için yeşil okları kullanın.


METAR-TAF: